Observation data for Denver City on 08/14/2019      Previous  Date  Next       Current Mesonet Observations  Soil Data  Daily Summary Page  Observations in Plain Language
KDVS 140500Z 08009KT 27/15 A3014 RMK A01 T02720152  RH  050%=      5-min Rain = 0
KDVS 140505Z 08010KT 27/15 A3014 RMK A01 T02700152  RH  051%=      5-min Rain = 0
KDVS 140510Z 08009KT 27/15 A3014 RMK A01 T02690153  RH  051%=      5-min Rain = 0
KDVS 140515Z 08009KT 27/15 A3014 RMK A01 T02680153  RH  052%=      5-min Rain = 0
KDVS 140520Z 08008KT 27/15 A3014 RMK A01 T02660153  RH  052%=      5-min Rain = 0
KDVS 140525Z 08008KT 27/15 A3014 RMK A01 T02650154  RH  053%=      5-min Rain = 0
KDVS 140530Z 09009KT 27/15 A3014 RMK A01 T02650154  RH  053%=      5-min Rain = 0
KDVS 140535Z 08009KT 26/15 A3014 RMK A01 T02640154  RH  053%=      5-min Rain = 0
KDVS 140540Z 08009KT 26/15 A3014 RMK A01 T02630154  RH  053%=      5-min Rain = 0
KDVS 140545Z 08009KT 26/15 A3014 RMK A01 T02620154  RH  054%=      5-min Rain = 0
KDVS 140550Z 08009KT 26/16 A3014 RMK A01 T02620155  RH  054%=      5-min Rain = 0
KDVS 140555Z 08009KT 26/16 A3014 RMK A01 T02600155  RH  055%=      5-min Rain = 0
KDVS 140600Z 08009KT 26/16 A3014 RMK A01 T02600156  RH  055%=      5-min Rain = 0
KDVS 140605Z 08009KT 26/16 A3014 RMK A01 T02600156  RH  055%=      5-min Rain = 0
KDVS 140610Z 08009KT 26/16 A3014 RMK A01 T02610156  RH  055%=      5-min Rain = 0
KDVS 140615Z 09007KT 26/16 A3014 RMK A01 T02600156  RH  055%=      5-min Rain = 0
KDVS 140620Z 08008KT 26/16 A3015 RMK A01 T02580157  RH  056%=      5-min Rain = 0
KDVS 140625Z 08009KT 26/16 A3015 RMK A01 T02580157  RH  056%=      5-min Rain = 0
KDVS 140630Z 08007KT 26/16 A3015 RMK A01 T02570157  RH  057%=      5-min Rain = 0
KDVS 140635Z 08008KT 26/16 A3015 RMK A01 T02550158  RH  057%=      5-min Rain = 0
KDVS 140640Z 08009KT 26/16 A3015 RMK A01 T02550159  RH  058%=      5-min Rain = 0
KDVS 140645Z 08009KT 26/16 A3015 RMK A01 T02560159  RH  058%=      5-min Rain = 0
KDVS 140650Z 09008KT 26/16 A3015 RMK A01 T02550160  RH  058%=      5-min Rain = 0
KDVS 140655Z 10007KT 25/16 A3015 RMK A01 T02530160  RH  059%=      5-min Rain = 0
KDVS 140700Z 11008KT 25/16 A3014 RMK A01 T02520160  RH  059%=      5-min Rain = 0
KDVS 140705Z 10008KT 25/16 A3014 RMK A01 T02510160  RH  060%=      5-min Rain = 0
KDVS 140710Z 09008KT 25/16 A3014 RMK A01 T02490160  RH  060%=      5-min Rain = 0
KDVS 140715Z 09008KT 25/16 A3014 RMK A01 T02480160  RH  061%=      5-min Rain = 0
KDVS 140720Z 09008KT 25/16 A3014 RMK A01 T02470160  RH  061%=      5-min Rain = 0
KDVS 140725Z 10008KT 25/16 A3014 RMK A01 T02480161  RH  061%=      5-min Rain = 0
KDVS 140730Z 10009KT 25/16 A3014 RMK A01 T02490161  RH  061%=      5-min Rain = 0
KDVS 140735Z 09008KT 25/16 A3014 RMK A01 T02480161  RH  061%=      5-min Rain = 0
KDVS 140740Z 09008KT 25/16 A3014 RMK A01 T02470161  RH  062%=      5-min Rain = 0
KDVS 140745Z 08007KT 25/16 A3014 RMK A01 T02450161  RH  062%=      5-min Rain = 0
KDVS 140750Z 08006KT 24/16 A3014 RMK A01 T02430161  RH  063%=      5-min Rain = 0
KDVS 140755Z 08006KT 24/16 A3014 RMK A01 T02410161  RH  064%=      5-min Rain = 0
KDVS 140800Z 07007KT 24/16 A3014 RMK A01 T02400161  RH  064%=      5-min Rain = 0
KDVS 140805Z 07007KT 24/16 A3014 RMK A01 T02380161  RH  065%=      5-min Rain = 0
KDVS 140810Z 07007KT 24/16 A3014 RMK A01 T02370161  RH  065%=      5-min Rain = 0
KDVS 140815Z 07007KT 24/16 A3014 RMK A01 T02360161  RH  066%=      5-min Rain = 0
KDVS 140820Z 07007KT 23/16 A3014 RMK A01 T02340161  RH  067%=      5-min Rain = 0
KDVS 140825Z 08008KT 23/16 A3014 RMK A01 T02340162  RH  067%=      5-min Rain = 0
KDVS 140830Z 08008KT 24/16 A3014 RMK A01 T02360162  RH  067%=      5-min Rain = 0
KDVS 140835Z 08009KT 24/16 A3014 RMK A01 T02360163  RH  067%=      5-min Rain = 0
KDVS 140840Z 08009KT 24/16 A3014 RMK A01 T02360163  RH  067%=      5-min Rain = 0
KDVS 140845Z 08009KT 24/16 A3014 RMK A01 T02360163  RH  066%=      5-min Rain = 0
KDVS 140850Z 07009KT 24/16 A3014 RMK A01 T02360162  RH  067%=      5-min Rain = 0
KDVS 140855Z 07009KT 24/16 A3014 RMK A01 T02350162  RH  067%=      5-min Rain = 0
KDVS 140900Z 07009KT 23/16 A3014 RMK A01 T02340162  RH  067%=      5-min Rain = 0
KDVS 140905Z 07010KT 23/16 A3014 RMK A01 T02340163  RH  068%=      5-min Rain = 0
KDVS 140910Z 07010KT 23/16 A3014 RMK A01 T02330163  RH  068%=      5-min Rain = 0
KDVS 140915Z 07011KT 23/16 A3014 RMK A01 T02330163  RH  068%=      5-min Rain = 0
KDVS 140920Z 07011KT 23/16 A3014 RMK A01 T02330163  RH  068%=      5-min Rain = 0
KDVS 140925Z 07011KT 23/16 A3014 RMK A01 T02320163  RH  068%=      5-min Rain = 0
KDVS 140930Z 07011KT 23/16 A3014 RMK A01 T02320163  RH  069%=      5-min Rain = 0
KDVS 140935Z 07010G16KT 23/16 A3014 RMK A01 T02300163  RH  069%=      5-min Rain = 0
KDVS 140940Z 07010G16KT 23/16 A3014 RMK A01 T02290164  RH  070%=      5-min Rain = 0
KDVS 140945Z 07010KT 23/16 A3014 RMK A01 T02280164  RH  070%=      5-min Rain = 0
KDVS 140950Z 07011KT 23/16 A3014 RMK A01 T02280164  RH  071%=      5-min Rain = 0
KDVS 140955Z 07010KT 23/17 A3014 RMK A01 T02270165  RH  071%=      5-min Rain = 0
KDVS 141000Z 06009KT 23/17 A3014 RMK A01 T02270165  RH  071%=      5-min Rain = 0
KDVS 141005Z 07009KT 23/17 A3014 RMK A01 T02260165  RH  072%=      5-min Rain = 0
KDVS 141010Z 06010KT 23/17 A3014 RMK A01 T02250165  RH  072%=      5-min Rain = 0
KDVS 141015Z 06009KT 23/17 A3014 RMK A01 T02250165  RH  072%=      5-min Rain = 0
KDVS 141020Z 07009KT 23/17 A3015 RMK A01 T02250165  RH  073%=      5-min Rain = 0
KDVS 141025Z 07009KT 23/17 A3015 RMK A01 T02250165  RH  073%=      5-min Rain = 0
KDVS 141030Z 07009KT 22/17 A3015 RMK A01 T02240165  RH  073%=      5-min Rain = 0
KDVS 141035Z 06009KT 22/17 A3015 RMK A01 T02240165  RH  073%=      5-min Rain = 0
KDVS 141040Z 06009KT 22/17 A3015 RMK A01 T02230166  RH  073%=      5-min Rain = 0
KDVS 141045Z 06009KT 22/17 A3015 RMK A01 T02230166  RH  073%=      5-min Rain = 0
KDVS 141050Z 05009KT 22/17 A3015 RMK A01 T02220166  RH  074%=      5-min Rain = 0
KDVS 141055Z 05008KT 22/17 A3015 RMK A01 T02210166  RH  075%=      5-min Rain = 0
KDVS 141100Z 05009KT 22/17 A3015 RMK A01 T02190166  RH  075%=      5-min Rain = 0
KDVS 141105Z 05008KT 22/17 A3015 RMK A01 T02190166  RH  075%=      5-min Rain = 0
KDVS 141110Z 05008KT 22/17 A3016 RMK A01 T02180166  RH  076%=      5-min Rain = 0
KDVS 141115Z 05009KT 22/17 A3016 RMK A01 T02170166  RH  076%=      5-min Rain = 0
KDVS 141120Z 05009KT 22/17 A3015 RMK A01 T02170166  RH  076%=      5-min Rain = 0
KDVS 141125Z 05010KT 22/17 A3016 RMK A01 T02170166  RH  076%=      5-min Rain = 0
KDVS 141130Z 05009KT 22/17 A3016 RMK A01 T02170166  RH  076%=      5-min Rain = 0
KDVS 141135Z 05010KT 22/17 A3016 RMK A01 T02160166  RH  077%=      5-min Rain = 0
KDVS 141140Z 05009KT 22/17 A3016 RMK A01 T02160165  RH  077%=      5-min Rain = 0
KDVS 141145Z 04009KT 22/17 A3016 RMK A01 T02150166  RH  077%=      5-min Rain = 0
KDVS 141150Z 04010KT 21/17 A3017 RMK A01 T02130165  RH  078%=      5-min Rain = 0
KDVS 141155Z 04010KT 21/17 A3017 RMK A01 T02130165  RH  078%=      5-min Rain = 0
KDVS 141200Z 05011KT 21/17 A3017 RMK A01 T02130165  RH  078%=      5-min Rain = 0
KDVS 141205Z 05011KT 21/17 A3017 RMK A01 T02130165  RH  078%=      5-min Rain = 0
KDVS 141210Z 05011KT 21/16 A3018 RMK A01 T02130164  RH  078%=      5-min Rain = 0
KDVS 141215Z 05011KT 21/16 A3018 RMK A01 T02130164  RH  078%=      5-min Rain = 0
KDVS 141220Z 05011KT 21/16 A3018 RMK A01 T02120164  RH  078%=      5-min Rain = 0
KDVS 141225Z 05010KT 21/16 A3019 RMK A01 T02120164  RH  078%=      5-min Rain = 0
KDVS 141230Z 05010KT 21/16 A3019 RMK A01 T02120164  RH  077%=      5-min Rain = 0
KDVS 141235Z 05012G17KT 21/16 A3019 RMK A01 T02140164  RH  077%=      5-min Rain = 0
KDVS 141240Z 05012KT 22/16 A3019 RMK A01 T02160164  RH  076%=      5-min Rain = 0
KDVS 141245Z 05012KT 22/16 A3019 RMK A01 T02170164  RH  075%=      5-min Rain = 0
KDVS 141250Z 05012KT 22/16 A3019 RMK A01 T02180164  RH  075%=      5-min Rain = 0
KDVS 141255Z 05013KT 22/16 A302 RMK A01 T02190164  RH  075%=      5-min Rain = 0
KDVS 141300Z 05011KT 22/16 A302 RMK A01 T02200164  RH  074%=      5-min Rain = 0
KDVS 141305Z 04014KT 22/16 A302 RMK A01 T02200164  RH  074%=      5-min Rain = 0
KDVS 141310Z 05014G20KT 22/16 A3021 RMK A01 T02200163  RH  073%=      5-min Rain = 0
KDVS 141315Z 04018G23KT 22/16 A3021 RMK A01 T02190161  RH  073%=      5-min Rain = 0
KDVS 141320Z 05017G22KT 22/16 A3021 RMK A01 T02190161  RH  073%=      5-min Rain = 0
KDVS 141325Z 05017KT 22/16 A3022 RMK A01 T02190161  RH  073%=      5-min Rain = 0
KDVS 141330Z 05016G23KT 22/16 A3022 RMK A01 T02190161  RH  073%=      5-min Rain = 0
KDVS 141335Z 05016G22KT 22/16 A3023 RMK A01 T02190161  RH  073%=      5-min Rain = 0
KDVS 141340Z 05019G25KT 22/16 A3023 RMK A01 T02190160  RH  073%=      5-min Rain = 0
KDVS 141345Z 05019G25KT 22/16 A3024 RMK A01 T02180160  RH  073%=      5-min Rain = 0
KDVS 141350Z 05018KT 22/16 A3024 RMK A01 T02180159  RH  072%=      5-min Rain = 0
KDVS 141355Z 04016G21KT 22/16 A3025 RMK A01 T02180159  RH  072%=      5-min Rain = 0
KDVS 141400Z 04021G27KT 22/15 A3025 RMK A01 T02180153  RH  070%=      5-min Rain = 0
KDVS 141405Z 04019G26KT 22/15 A3025 RMK A01 T02200150  RH  068%=      5-min Rain = 0
KDVS 141410Z 05021G27KT 22/15 A3025 RMK A01 T02220148  RH  066%=      5-min Rain = 0
KDVS 141415Z 05017KT 23/15 A3026 RMK A01 T02260148  RH  064%=      5-min Rain = 0
KDVS 141420Z 04018G24KT 23/15 A3026 RMK A01 T02260148  RH  064%=      5-min Rain = 0
KDVS 141425Z 05022G29KT 22/15 A3026 RMK A01 T02230145  RH  064%=      5-min Rain = 0
KDVS 141430Z 05017G25KT 23/15 A3027 RMK A01 T02250145  RH  063%=      5-min Rain = 0
KDVS 141435Z 05016G22KT 23/15 A3027 RMK A01 T02300145  RH  061%=      5-min Rain = 0
KDVS 141440Z 06016G22KT 23/15 A3027 RMK A01 T02320147  RH  061%=      5-min Rain = 0
KDVS 141445Z 04016G22KT 24/15 A3027 RMK A01 T02380147  RH  059%=      5-min Rain = 0
KDVS 141450Z 05020G25KT 24/14 A3027 RMK A01 T02360144  RH  059%=      5-min Rain = 0
KDVS 141455Z 05016G21KT 24/15 A3027 RMK A01 T02400145  RH  057%=      5-min Rain = 0
KDVS 141500Z 04019G24KT 24/14 A3027 RMK A01 T02440144  RH  056%=      5-min Rain = 0
KDVS 141505Z 04019G24KT 24/14 A3027 RMK A01 T02420144  RH  057%=      5-min Rain = 0
KDVS 141510Z 05017G22KT 25/14 A3027 RMK A01 T02460144  RH  055%=      5-min Rain = 0
KDVS 141515Z 05018G26KT 25/15 A3027 RMK A01 T02520145  RH  054%=      5-min Rain = 0
KDVS 141520Z 05016G21KT 26/15 A3027 RMK A01 T02560145  RH  053%=      5-min Rain = 0
KDVS 141525Z 05019G24KT 26/14 A3027 RMK A01 T02580143  RH  051%=      5-min Rain = 0
KDVS 141530Z 05018G24KT 26/14 A3027 RMK A01 T02560142  RH  052%=      5-min Rain = 0
KDVS 141535Z 05018G23KT 25/14 A3027 RMK A01 T02520140  RH  052%=      5-min Rain = 0
KDVS 141540Z 04016KT 25/14 A3027 RMK A01 T02510139  RH  052%=      5-min Rain = 0
KDVS 141545Z 03016G21KT 25/14 A3027 RMK A01 T02520140  RH  052%=      5-min Rain = 0
KDVS 141550Z 04018G24KT 25/14 A3027 RMK A01 T02520139  RH  052%=      5-min Rain = 0
KDVS 141555Z 03017KT 25/14 A3027 RMK A01 T02500140  RH  053%=      5-min Rain = 0
KDVS 141600Z 03017KT 25/14 A3027 RMK A01 T02500140  RH  052%=      5-min Rain = 0
KDVS 141605Z 03017G22KT 25/14 A3027 RMK A01 T02500141  RH  053%=      5-min Rain = 0
KDVS 141610Z 03014G20KT 25/14 A3026 RMK A01 T02540140  RH  051%=      5-min Rain = 0
KDVS 141615Z 03015G20KT 26/14 A3026 RMK A01 T02640139  RH  048%=      5-min Rain = 0
KDVS 141620Z 04015G21KT 27/14 A3026 RMK A01 T02680138  RH  047%=      5-min Rain = 0
KDVS 141625Z 04014KT 27/13 A3026 RMK A01 T02720134  RH  044%=      5-min Rain = 0
KDVS 141630Z 04016G21KT 28/13 A3026 RMK A01 T02750132  RH  043%=      5-min Rain = 0
KDVS 141635Z 04017G22KT 28/13 A3025 RMK A01 T02750130  RH  042%=      5-min Rain = 0
KDVS 141640Z 05017G24KT 28/13 A3025 RMK A01 T02750126  RH  041%=      5-min Rain = 0
KDVS 141645Z 05016G21KT 27/13 A3025 RMK A01 T02730126  RH  042%=      5-min Rain = 0
KDVS 141650Z 05016G22KT 27/13 A3024 RMK A01 T02740125  RH  041%=      5-min Rain = 0
KDVS 141655Z 06015G21KT 28/13 A3024 RMK A01 T02770125  RH  041%=      5-min Rain = 0
KDVS 141700Z 06014G19KT 28/12 A3023 RMK A01 T02830124  RH  039%=      5-min Rain = 0
KDVS 141705Z 08014G21KT 29/12 A3023 RMK A01 T02880122  RH  037%=      5-min Rain = 0
KDVS 141710Z 08015G24KT 29/12 A3022 RMK A01 T02880120  RH  037%=      5-min Rain = 0
KDVS 141715Z 08016G21KT 29/12 A3022 RMK A01 T02930116  RH  035%=      5-min Rain = 0
KDVS 141720Z 08016G22KT 29/12 A3022 RMK A01 T02930117  RH  035%=      5-min Rain = 0
KDVS 141725Z 09015G22KT 29/11 A3021 RMK A01 T02880114  RH  035%=      5-min Rain = 0
KDVS 141730Z 08016G21KT 29/11 A3021 RMK A01 T02910114  RH  035%=      5-min Rain = 0
KDVS 141735Z 08014G20KT 30/11 A3021 RMK A01 T02980112  RH  033%=      5-min Rain = 0
KDVS 141740Z 09016G22KT 30/11 A3021 RMK A01 T03010110  RH  032%=      5-min Rain = 0
KDVS 141745Z 10014G20KT 31/11 A3021 RMK A01 T03070112  RH  031%=      5-min Rain = 0
KDVS 141750Z 09015G20KT 31/11 A3021 RMK A01 T03090108  RH  030%=      5-min Rain = 0
KDVS 141755Z 10014KT 31/11 A3021 RMK A01 T03120105  RH  029%=      5-min Rain = 0
KDVS 141800Z 09013G19KT 32/11 A3021 RMK A01 T03150108  RH  029%=      5-min Rain = 0
KDVS 141805Z 08012G17KT 31/11 A302 RMK A01 T03110107  RH  029%=      5-min Rain = 0
KDVS 141810Z 08013KT 31/11 A302 RMK A01 T03120105  RH  029%=      5-min Rain = 0
KDVS 141815Z 11012G17KT 31/10 A302 RMK A01 T03120104  RH  029%=      5-min Rain = 0
KDVS 141820Z 10012G17KT 33/11 A302 RMK A01 T03250105  RH  027%=      5-min Rain = 0
KDVS 141825Z 10010KT 32/11 A302 RMK A01 T03230107  RH  027%=      5-min Rain = 0
KDVS 141830Z 11011G17KT 33/11 A302 RMK A01 T03250108  RH  027%=      5-min Rain = 0
KDVS 141835Z 08011G18KT 32/11 A302 RMK A01 T03210108  RH  028%=      5-min Rain = 0
KDVS 141840Z 10009G15KT 32/11 A302 RMK A01 T03180107  RH  028%=      5-min Rain = 0
KDVS 141845Z 10010KT 32/10 A302 RMK A01 T03200104  RH  028%=      5-min Rain = 0
KDVS 141850Z 08010G17KT 32/11 A302 RMK A01 T03240106  RH  027%=      5-min Rain = 0
KDVS 141855Z 08008G15KT 33/11 A302 RMK A01 T03260107  RH  027%=      5-min Rain = 0
KDVS 141900Z 10010KT 33/11 A302 RMK A01 T03260107  RH  027%=      5-min Rain = 0
KDVS 141905Z 07010KT 33/11 A302 RMK A01 T03260106  RH  027%=      5-min Rain = 0
KDVS 141910Z 07010G18KT 33/11 A3019 RMK A01 T03290105  RH  026%=      5-min Rain = 0
KDVS 141915Z 07012G17KT 33/10 A3019 RMK A01 T03320104  RH  026%=      5-min Rain = 0
KDVS 141920Z 06008G13KT 33/10 A3019 RMK A01 T03310104  RH  026%=      5-min Rain = 0
KDVS 141925Z 05010G16KT 33/10 A3019 RMK A01 T03340104  RH  025%=      5-min Rain = 0
KDVS 141930Z 07009G16KT 33/10 A3019 RMK A01 T03340104  RH  025%=      5-min Rain = 0
KDVS 141935Z 09012G19KT 33/10 A3019 RMK A01 T03340102  RH  025%=      5-min Rain = 0
KDVS 141940Z 05010G17KT 34/10 A3019 RMK A01 T03360101  RH  025%=      5-min Rain = 0
KDVS 141945Z 06012G17KT 34/10 A3019 RMK A01 T03350096  RH  024%=      5-min Rain = 0
KDVS 141950Z 08008G18KT 33/10 A3019 RMK A01 T03330096  RH  024%=      5-min Rain = 0
KDVS 141955Z 08008G14KT 33/10 A3018 RMK A01 T03340095  RH  024%=      5-min Rain = 0
KDVS 142000Z 09008KT 34/10 A3018 RMK A01 T03350096  RH  024%=      5-min Rain = 0
KDVS 142005Z 06008G14KT 33/10 A3018 RMK A01 T03330096  RH  024%=      5-min Rain = 0
KDVS 142010Z 06011G19KT 34/09 A3017 RMK A01 T03410089  RH  022%=      5-min Rain = 0
KDVS 142015Z 03007G12KT 34/09 A3017 RMK A01 T03410089  RH  022%=      5-min Rain = 0
KDVS 142020Z 05009G16KT 34/09 A3016 RMK A01 T03400091  RH  022%=      5-min Rain = 0
KDVS 142025Z 05009G17KT 34/08 A3016 RMK A01 T03440083  RH  021%=      5-min Rain = 0
KDVS 142030Z 04008G14KT 34/08 A3016 RMK A01 T03420080  RH  021%=      5-min Rain = 0
KDVS 142035Z 03006G13KT 34/08 A3015 RMK A01 T03370083  RH  022%=      5-min Rain = 0
KDVS 142040Z 06011G21KT 34/08 A3015 RMK A01 T03410084  RH  021%=      5-min Rain = 0
KDVS 142045Z 07010G16KT 34/08 A3015 RMK A01 T03420084  RH  021%=      5-min Rain = 0
KDVS 142050Z 10009G14KT 34/08 A3015 RMK A01 T03400084  RH  021%=      5-min Rain = 0
KDVS 142055Z 05011G19KT 34/08 A3014 RMK A01 T03410082  RH  021%=      5-min Rain = 0
KDVS 142100Z 04011G18KT 34/08 A3014 RMK A01 T03420080  RH  021%=      5-min Rain = 0
KDVS 142105Z 03007G12KT 34/08 A3014 RMK A01 T03400080  RH  021%=      5-min Rain = 0
KDVS 142110Z 05006G15KT 34/08 A3014 RMK A01 T03430078  RH  020%=      5-min Rain = 0
KDVS 142115Z 06009G17KT 34/08 A3014 RMK A01 T03430078  RH  020%=      5-min Rain = 0
KDVS 142120Z 07007G15KT 34/08 A3014 RMK A01 T03440080  RH  020%=      5-min Rain = 0
KDVS 142125Z 06013G18KT 35/08 A3014 RMK A01 T03460079  RH  020%=      5-min Rain = 0
KDVS 142130Z 05009G16KT 34/08 A3014 RMK A01 T03420079  RH  020%=      5-min Rain = 0
KDVS 142135Z 07010G15KT 34/08 A3014 RMK A01 T03400077  RH  020%=      5-min Rain = 0
KDVS 142140Z 09008KT 34/08 A3013 RMK A01 T03400077  RH  020%=      5-min Rain = 0
KDVS 142145Z 10009G16KT 34/08 A3013 RMK A01 T03420078  RH  020%=      5-min Rain = 0
KDVS 142150Z 08008G13KT 34/08 A3013 RMK A01 T03430077  RH  020%=      5-min Rain = 0
KDVS 142155Z 06008G15KT 34/08 A3013 RMK A01 T03410078  RH  020%=      5-min Rain = 0
KDVS 142200Z 07009G16KT 34/08 A3013 RMK A01 T03410078  RH  020%=      5-min Rain = 0
KDVS 142205Z 08006G15KT 34/08 A3013 RMK A01 T03390078  RH  021%=      5-min Rain = 0
KDVS 142210Z 10005G14KT 34/08 A3012 RMK A01 T03380078  RH  021%=      5-min Rain = 0
KDVS 142215Z 10010KT 34/08 A3012 RMK A01 T03430077  RH  020%=      5-min Rain = 0
KDVS 142220Z 11008G13KT 35/08 A3012 RMK A01 T03450076  RH  020%=      5-min Rain = 0
KDVS 142225Z 12006G11KT 34/08 A3011 RMK A01 T03430077  RH  020%=      5-min Rain = 0
KDVS 142230Z 10007KT 34/08 A3011 RMK A01 T03420077  RH  020%=      5-min Rain = 0
KDVS 142235Z 05011KT 34/08 A3011 RMK A01 T03410079  RH  020%=      5-min Rain = 0
KDVS 142240Z 06008KT 34/08 A3011 RMK A01 T03390075  RH  020%=      5-min Rain = 0
KDVS 142245Z 05006KT 34/07 A3011 RMK A01 T03390074  RH  020%=      5-min Rain = 0
KDVS 142250Z 05005KT 34/08 A3011 RMK A01 T03400075  RH  020%=      5-min Rain = 0
KDVS 142255Z 08007G16KT 34/07 A301 RMK A01 T03400074  RH  020%=      5-min Rain = 0
KDVS 142300Z 08010KT 34/07 A3011 RMK A01 T03410073  RH  020%=      5-min Rain = 0
KDVS 142305Z 08009G18KT 34/07 A301 RMK A01 T03420071  RH  019%=      5-min Rain = 0
KDVS 142310Z 11012KT 34/07 A301 RMK A01 T03420070  RH  019%=      5-min Rain = 0
KDVS 142315Z 08007KT 34/07 A301 RMK A01 T03420069  RH  019%=      5-min Rain = 0
KDVS 142320Z 06008KT 34/07 A301 RMK A01 T03410070  RH  019%=      5-min Rain = 0
KDVS 142325Z 10011KT 34/07 A301 RMK A01 T03400068  RH  019%=      5-min Rain = 0
KDVS 142330Z 11009KT 34/07 A301 RMK A01 T03400068  RH  019%=      5-min Rain = 0
KDVS 142335Z 10010KT 34/07 A301 RMK A01 T03400068  RH  019%=      5-min Rain = 0
KDVS 142340Z 11009KT 34/07 A301 RMK A01 T03390068  RH  019%=      5-min Rain = 0
KDVS 142345Z 10010G21KT 34/07 A301 RMK A01 T03390067  RH  019%=      5-min Rain = 0
KDVS 142350Z 12011KT 34/07 A3009 RMK A01 T03390067  RH  019%=      5-min Rain = 0
KDVS 142355Z 11009KT 34/07 A301 RMK A01 T03370065  RH  019%=      5-min Rain = 0
KDVS 150000Z 12009KT 34/06 A301 RMK A01 T03360064  RH  019%=      5-min Rain = 0
KDVS 150005Z 12008KT 34/06 A301 RMK A01 T03370064  RH  019%=      5-min Rain = 0
KDVS 150010Z 11007KT 34/07 A301 RMK A01 T03380065  RH  019%=      5-min Rain = 0
KDVS 150015Z 11010KT 34/07 A301 RMK A01 T03350068  RH  020%=      5-min Rain = 0
KDVS 150020Z 11010KT 33/07 A301 RMK A01 T03310065  RH  020%=      5-min Rain = 0
KDVS 150025Z 09010KT 33/07 A301 RMK A01 T03300067  RH  020%=      5-min Rain = 0
KDVS 150030Z 12009KT 33/07 A3011 RMK A01 T03280072  RH  021%=      5-min Rain = 0
KDVS 150035Z 11007KT 33/07 A3011 RMK A01 T03250072  RH  021%=      5-min Rain = 0
KDVS 150040Z 09008KT 33/07 A3011 RMK A01 T03260068  RH  021%=      5-min Rain = 0
KDVS 150045Z 12011KT 33/07 A3011 RMK A01 T03250069  RH  021%=      5-min Rain = 0
KDVS 150050Z 12010KT 32/07 A3011 RMK A01 T03220068  RH  021%=      5-min Rain = 0
KDVS 150055Z 12009KT 32/07 A3011 RMK A01 T03190069  RH  021%=      5-min Rain = 0
KDVS 150100Z 12010KT 32/07 A3011 RMK A01 T03170069  RH  022%=      5-min Rain = 0
KDVS 150105Z 11010KT 32/07 A3012 RMK A01 T03150069  RH  022%=      5-min Rain = 0
KDVS 150110Z 11009KT 31/07 A3012 RMK A01 T03140069  RH  022%=      5-min Rain = 0
KDVS 150115Z 11008KT 31/07 A3012 RMK A01 T03110070  RH  023%=      5-min Rain = 0
KDVS 150120Z 11008KT 31/07 A3012 RMK A01 T03080071  RH  023%=      5-min Rain = 0
KDVS 150125Z 11007KT 31/07 A3013 RMK A01 T03050071  RH  024%=      5-min Rain = 0
KDVS 150130Z 12007KT 30/07 A3013 RMK A01 T03020071  RH  024%=      5-min Rain = 0
KDVS 150135Z 12007KT 30/07 A3013 RMK A01 T02990072  RH  025%=      5-min Rain = 0
KDVS 150140Z 12006KT 30/07 A3013 RMK A01 T02950072  RH  025%=      5-min Rain = 0
KDVS 150145Z 11007KT 29/07 A3013 RMK A01 T02900073  RH  026%=      5-min Rain = 0
KDVS 150150Z 12006KT 29/07 A3013 RMK A01 T02850073  RH  027%=      5-min Rain = 0
KDVS 150155Z 12005KT 28/07 A3014 RMK A01 T02810074  RH  028%=      5-min Rain = 0
KDVS 150200Z 12005KT 28/07 A3014 RMK A01 T02790074  RH  028%=      5-min Rain = 0
KDVS 150205Z 11005KT 28/07 A3014 RMK A01 T02770074  RH  029%=      5-min Rain = 0
KDVS 150210Z 11004KT 28/08 A3015 RMK A01 T02760075  RH  029%=      5-min Rain = 0
KDVS 150215Z 10005KT 28/08 A3015 RMK A01 T02750075  RH  029%=      5-min Rain = 0
KDVS 150220Z 10005KT 27/08 A3015 RMK A01 T02740075  RH  029%=      5-min Rain = 0
KDVS 150225Z 10005KT 27/08 A3015 RMK A01 T02730075  RH  029%=      5-min Rain = 0
KDVS 150230Z 10005KT 27/08 A3015 RMK A01 T02710075  RH  030%=      5-min Rain = 0
KDVS 150235Z 11005KT 27/08 A3015 RMK A01 T02690075  RH  030%=      5-min Rain = 0
KDVS 150240Z 11005KT 27/08 A3015 RMK A01 T02680075  RH  030%=      5-min Rain = 0
KDVS 150245Z 11004KT 27/08 A3015 RMK A01 T02670075  RH  030%=      5-min Rain = 0
KDVS 150250Z 10003KT 27/08 A3015 RMK A01 T02650075  RH  031%=      5-min Rain = 0
KDVS 150255Z 12004KT 26/08 A3015 RMK A01 T02620075  RH  031%=      5-min Rain = 0
KDVS 150300Z 11003KT 26/08 A3015 RMK A01 T02600075  RH  032%=      5-min Rain = 0
KDVS 150305Z 12003KT 26/08 A3015 RMK A01 T02580075  RH  032%=      5-min Rain = 0
KDVS 150310Z 13004KT 26/08 A3016 RMK A01 T02580076  RH  032%=      5-min Rain = 0
KDVS 150315Z 14004KT 26/08 A3016 RMK A01 T02580076  RH  032%=      5-min Rain = 0
KDVS 150320Z 14004KT 26/08 A3016 RMK A01 T02580076  RH  032%=      5-min Rain = 0
KDVS 150325Z 13005KT 26/08 A3016 RMK A01 T02550077  RH  033%=      5-min Rain = 0
KDVS 150330Z 12004KT 25/08 A3016 RMK A01 T02530078  RH  034%=      5-min Rain = 0
KDVS 150335Z 11004KT 25/08 A3016 RMK A01 T02530078  RH  034%=      5-min Rain = 0
KDVS 150340Z 07004KT 25/08 A3017 RMK A01 T02510077  RH  034%=      5-min Rain = 0
KDVS 150345Z 06004KT 25/08 A3016 RMK A01 T02450080  RH  036%=      5-min Rain = 0
KDVS 150350Z 09004KT 25/08 A3017 RMK A01 T02450081  RH  036%=      5-min Rain = 0
KDVS 150355Z 10005KT 25/08 A3017 RMK A01 T02470081  RH  036%=      5-min Rain = 0
KDVS 150400Z 07004KT 25/08 A3017 RMK A01 T02470081  RH  036%=      5-min Rain = 0
KDVS 150405Z 07004KT 24/08 A3017 RMK A01 T02440083  RH  037%=      5-min Rain = 0
KDVS 150410Z 09005KT 24/08 A3017 RMK A01 T02440082  RH  037%=      5-min Rain = 0
KDVS 150415Z 10005KT 24/08 A3017 RMK A01 T02440082  RH  037%=      5-min Rain = 0
KDVS 150420Z 13006KT 24/08 A3018 RMK A01 T02420082  RH  037%=      5-min Rain = 0
KDVS 150425Z 16007KT 24/09 A3017 RMK A01 T02420085  RH  038%=      5-min Rain = 0
KDVS 150430Z 16006KT 24/09 A3017 RMK A01 T02420088  RH  039%=      5-min Rain = 0
KDVS 150435Z 16006KT 24/09 A3017 RMK A01 T02410093  RH  040%=      5-min Rain = 0
KDVS 150440Z 16004KT 24/10 A3018 RMK A01 T02410095  RH  041%=      5-min Rain = 0
KDVS 150445Z 17004KT 24/10 A3018 RMK A01 T02400096  RH  041%=      5-min Rain = 0
KDVS 150450Z 17003KT 24/10 A3018 RMK A01 T02390097  RH  042%=      5-min Rain = 0
KDVS 150455Z 16003KT 24/10 A3018 RMK A01 T02390097  RH  042%=      5-min Rain = 0

Page generated in 0.009 seconds.